createdAt,value
2022-11-13T00:01:25.326Z,83.97
2022-11-13T00:03:53.211Z,84.00
2022-11-13T00:06:21.509Z,84.05
2022-11-13T00:08:54.691Z,84.08
2022-11-13T00:11:25.776Z,84.10
2022-11-13T00:13:53.623Z,84.12
2022-11-13T00:16:22.014Z,84.12
2022-11-13T00:18:49.972Z,84.13
2022-11-13T00:21:21.894Z,84.15
2022-11-13T00:23:50.652Z,84.16
2022-11-13T00:26:25.373Z,84.17
2022-11-13T00:28:59.733Z,84.20
2022-11-13T00:31:28.920Z,84.22
2022-11-13T00:34:19.414Z,84.24
2022-11-13T00:36:48.399Z,84.25
2022-11-13T00:39:16.389Z,84.28
2022-11-13T00:41:44.387Z,84.28
2022-11-13T00:44:12.643Z,84.30
2022-11-13T00:46:40.523Z,84.29
2022-11-13T00:49:08.577Z,84.32
2022-11-13T00:51:36.386Z,84.33
2022-11-13T00:54:04.275Z,84.35
2022-11-13T00:56:32.133Z,84.37
2022-11-13T00:58:59.979Z,84.41
2022-11-13T01:01:27.966Z,84.41
2022-11-13T01:03:55.870Z,84.40
2022-11-13T01:06:26.481Z,84.38
2022-11-13T01:08:57.086Z,84.38
2022-11-13T01:11:28.175Z,84.38
2022-11-13T01:13:56.913Z,84.37
2022-11-13T01:16:27.353Z,84.36
2022-11-13T01:18:56.407Z,84.36
2022-11-13T01:21:27.527Z,84.36
2022-11-13T01:23:56.338Z,84.37
2022-11-13T01:26:28.755Z,84.36
2022-11-13T01:28:58.905Z,84.37
2022-11-13T01:31:30.669Z,84.39
2022-11-13T01:33:58.686Z,84.42
2022-11-13T01:36:29.149Z,84.47
2022-11-13T01:38:57.583Z,84.50
2022-11-13T01:41:29.544Z,84.53
2022-11-13T01:43:57.919Z,84.56
2022-11-13T01:46:30.267Z,84.57
2022-11-13T01:49:09.955Z,84.56
2022-11-13T01:51:56.538Z,84.55
2022-11-13T01:54:37.726Z,84.56
2022-11-13T01:57:05.947Z,84.54
2022-11-13T01:59:46.071Z,84.54
2022-11-13T02:02:14.009Z,84.55
2022-11-13T02:04:42.292Z,84.54
2022-11-13T02:07:16.025Z,84.52
2022-11-13T02:09:48.744Z,84.45
2022-11-13T02:12:25.796Z,84.43
2022-11-13T02:14:54.854Z,84.39
2022-11-13T02:17:31.353Z,84.33
2022-11-13T02:20:02.357Z,84.26
2022-11-13T02:22:36.578Z,84.23
2022-11-13T02:25:04.927Z,84.21
2022-11-13T02:27:46.586Z,84.13
2022-11-13T02:30:27.267Z,84.07
2022-11-13T02:32:57.703Z,84.06
2022-11-13T02:35:36.043Z,84.01
2022-11-13T02:38:05.869Z,83.91
2022-11-13T02:40:34.101Z,83.83
2022-11-13T02:43:01.960Z,83.76
2022-11-13T02:45:29.799Z,83.61
2022-11-13T02:48:00.784Z,83.53
2022-11-13T02:50:28.756Z,83.51
2022-11-13T02:52:56.879Z,83.49
2022-11-13T02:55:24.855Z,83.43
2022-11-13T02:57:52.604Z,83.36
2022-11-13T03:00:20.725Z,83.35
2022-11-13T03:02:48.865Z,83.27
2022-11-13T03:05:16.860Z,83.18
2022-11-13T03:07:44.689Z,83.17
2022-11-13T03:10:12.666Z,83.18
2022-11-13T03:12:40.959Z,83.17
2022-11-13T03:15:09.495Z,83.13
2022-11-13T03:17:37.361Z,83.08
2022-11-13T03:20:06.363Z,83.06
2022-11-13T03:22:36.880Z,83.03
2022-11-13T03:25:10.464Z,82.95
2022-11-13T03:27:39.003Z,82.93
2022-11-13T03:30:07.839Z,82.87
2022-11-13T03:32:35.974Z,82.80
2022-11-13T03:35:04.276Z,82.76
2022-11-13T03:37:32.276Z,82.68
2022-11-13T03:40:02.570Z,82.67
2022-11-13T03:42:32.829Z,82.63
2022-11-13T03:45:00.861Z,82.50
2022-11-13T03:47:28.811Z,82.23
2022-11-13T03:49:56.627Z,82.17
2022-11-13T03:52:24.565Z,82.11
2022-11-13T03:54:52.484Z,81.81
2022-11-13T03:57:20.303Z,81.80
2022-11-13T03:59:48.130Z,81.80
2022-11-13T04:02:16.426Z,81.66
2022-11-13T04:04:44.860Z,81.60
2022-11-13T04:07:12.711Z,81.66
2022-11-13T04:09:40.514Z,81.67
2022-11-13T04:12:08.346Z,81.55
2022-11-13T04:14:36.147Z,81.46
2022-11-13T04:17:04.063Z,81.54
2022-11-13T04:19:33.488Z,81.55
2022-11-13T04:22:01.428Z,81.45
2022-11-13T04:24:29.404Z,81.31
2022-11-13T04:26:57.405Z,81.38
2022-11-13T04:29:25.261Z,81.42
2022-11-13T04:31:53.075Z,81.45
2022-11-13T04:34:21.212Z,81.39
2022-11-13T04:36:49.134Z,81.32
2022-11-13T04:39:17.016Z,81.32
2022-11-13T04:42:03.601Z,81.31
2022-11-13T04:44:31.507Z,81.31
2022-11-13T04:46:59.506Z,81.27
2022-11-13T04:49:27.396Z,81.22
2022-11-13T04:51:55.313Z,81.17
2022-11-13T04:54:28.584Z,81.14
2022-11-13T04:56:56.872Z,81.12
2022-11-13T04:59:24.871Z,81.11
2022-11-13T05:01:52.760Z,81.03
2022-11-13T05:04:20.796Z,80.99
2022-11-13T05:06:48.716Z,80.91
2022-11-13T05:09:16.692Z,80.86
2022-11-13T05:11:44.565Z,80.87
2022-11-13T05:14:13.463Z,80.83
2022-11-13T05:16:41.370Z,80.72
2022-11-13T05:19:09.269Z,80.69
2022-11-13T05:21:38.893Z,80.66
2022-11-13T05:24:07.326Z,80.58
2022-11-13T05:26:40.453Z,80.53
2022-11-13T05:29:08.290Z,80.52
2022-11-13T05:31:36.206Z,80.49
2022-11-13T05:34:06.752Z,80.31
2022-11-13T05:36:34.723Z,80.30
2022-11-13T05:39:03.216Z,80.28
2022-11-13T05:41:31.094Z,80.14
2022-11-13T05:43:59.935Z,80.09
2022-11-13T05:46:29.698Z,79.85
2022-11-13T05:49:00.148Z,79.90
2022-11-13T05:51:34.241Z,79.90
2022-11-13T05:54:02.736Z,79.92
2022-11-13T05:56:36.725Z,79.83
2022-11-13T05:59:05.291Z,79.82
2022-11-13T06:01:39.578Z,79.75
2022-11-13T06:04:08.017Z,79.58
2022-11-13T06:06:35.882Z,79.65
2022-11-13T06:09:05.750Z,79.69
2022-11-13T06:11:33.835Z,79.67
2022-11-13T06:14:01.755Z,79.75
2022-11-13T06:16:35.526Z,79.79
2022-11-13T06:19:06.904Z,79.75
2022-11-13T06:21:39.891Z,79.72
2022-11-13T06:24:11.736Z,79.70
2022-11-13T06:26:39.956Z,79.74
2022-11-13T06:29:11.007Z,79.77
2022-11-13T06:31:38.993Z,79.79
2022-11-13T06:34:07.039Z,79.81
2022-11-13T06:36:36.876Z,79.82
2022-11-13T06:39:09.728Z,79.78
2022-11-13T06:41:39.153Z,79.78
2022-11-13T06:44:07.156Z,79.75
2022-11-13T06:46:35.251Z,79.70
2022-11-13T06:49:03.296Z,79.64
2022-11-13T06:51:31.470Z,79.69
2022-11-13T06:53:59.534Z,79.72
2022-11-13T06:56:27.315Z,79.80
2022-11-13T06:58:56.503Z,79.87
2022-11-13T07:01:27.031Z,79.95
2022-11-13T07:03:55.030Z,79.92
2022-11-13T07:06:24.587Z,79.99
2022-11-13T07:08:52.906Z,80.04
2022-11-13T07:11:23.245Z,80.08
2022-11-13T07:13:51.251Z,80.08
2022-11-13T07:16:19.403Z,80.12
2022-11-13T07:18:54.793Z,80.03
2022-11-13T07:21:22.904Z,80.11
2022-11-13T07:23:50.873Z,80.16
2022-11-13T07:26:19.537Z,80.28
2022-11-13T07:28:47.893Z,80.36
2022-11-13T07:31:17.732Z,80.36
2022-11-13T07:33:50.068Z,80.35
2022-11-13T07:36:18.195Z,80.45
2022-11-13T07:38:46.115Z,80.57
2022-11-13T07:41:14.414Z,80.70
2022-11-13T07:43:42.294Z,80.67
2022-11-13T07:46:12.767Z,80.71
2022-11-13T07:48:40.825Z,80.74
2022-11-13T07:51:08.639Z,80.86
2022-11-13T07:53:37.234Z,80.96
2022-11-13T07:56:05.654Z,80.97
2022-11-13T07:58:33.732Z,81.00
2022-11-13T08:01:06.392Z,80.94
2022-11-13T08:03:34.403Z,80.82
2022-11-13T08:06:07.825Z,80.77
2022-11-13T08:08:35.843Z,80.70
2022-11-13T08:11:07.974Z,80.70
2022-11-13T08:13:36.965Z,80.58
2022-11-13T08:16:05.826Z,80.53
2022-11-13T08:18:34.981Z,80.52
2022-11-13T08:21:06.297Z,80.48
2022-11-13T08:23:37.131Z,80.34
2022-11-13T08:26:09.207Z,80.00
2022-11-13T08:28:37.023Z,80.27
2022-11-13T08:31:08.307Z,80.34
2022-11-13T08:33:36.363Z,80.52
2022-11-13T08:36:05.038Z,80.48
2022-11-13T08:38:32.908Z,80.08
2022-11-13T08:41:08.608Z,79.59
2022-11-13T08:43:37.566Z,79.73
2022-11-13T08:46:06.095Z,79.53
2022-11-13T08:48:34.903Z,78.28
2022-11-13T08:51:02.813Z,78.08
2022-11-13T08:53:30.909Z,77.80
2022-11-13T08:56:03.508Z,77.74
2022-11-13T08:58:32.202Z,77.64
2022-11-13T09:01:02.075Z,77.52
2022-11-13T09:03:30.882Z,77.44
2022-11-13T09:05:58.964Z,77.61
2022-11-13T09:08:27.597Z,77.13
2022-11-13T09:10:56.154Z,76.80
2022-11-13T09:13:24.463Z,76.85
2022-11-13T09:15:52.559Z,76.85
2022-11-13T09:18:20.863Z,76.83
2022-11-13T09:20:49.111Z,77.14
2022-11-13T09:23:19.229Z,77.25
2022-11-13T09:25:47.857Z,77.19
2022-11-13T09:28:15.881Z,76.92
2022-11-13T09:30:46.376Z,77.09
2022-11-13T09:33:16.591Z,77.22
2022-11-13T09:35:44.638Z,77.36
2022-11-13T09:38:15.283Z,76.89
2022-11-13T09:40:58.782Z,76.73
2022-11-13T09:43:58.254Z,76.96
2022-11-13T09:46:53.067Z,77.12
2022-11-13T09:49:36.286Z,76.65
2022-11-13T09:52:16.709Z,76.65
2022-11-13T09:54:44.875Z,76.42
2022-11-13T09:57:41.608Z,76.16
2022-11-13T10:00:17.753Z,75.83
2022-11-13T10:03:39.524Z,75.83
2022-11-13T10:06:40.478Z,76.02
2022-11-13T10:09:30.308Z,76.26
2022-11-13T10:12:03.852Z,76.21
2022-11-13T10:14:48.361Z,76.35
2022-11-13T10:17:33.187Z,76.22
2022-11-13T10:20:34.429Z,76.10
2022-11-13T10:23:17.218Z,76.24
2022-11-13T10:25:45.356Z,76.23
2022-11-13T10:28:48.966Z,75.97
2022-11-13T10:31:12.899Z,75.76
2022-11-13T10:33:40.895Z,75.83
2022-11-13T10:36:36.742Z,75.82
2022-11-13T10:39:11.212Z,75.83
2022-11-13T10:41:51.647Z,75.84
2022-11-13T10:44:36.689Z,75.72
2022-11-13T10:47:08.220Z,75.82
2022-11-13T10:49:36.111Z,75.96
2022-11-13T10:52:08.518Z,75.79
2022-11-13T10:54:39.210Z,75.62
2022-11-13T10:57:37.715Z,75.65
2022-11-13T11:00:35.213Z,75.56
2022-11-13T11:03:03.231Z,75.26
2022-11-13T11:05:31.491Z,75.34
2022-11-13T11:08:03.043Z,75.37
2022-11-13T11:10:35.357Z,75.58
2022-11-13T11:13:22.920Z,75.77
2022-11-13T11:16:02.145Z,75.72
2022-11-13T11:18:41.927Z,75.62
2022-11-13T11:21:18.879Z,75.56
2022-11-13T11:24:06.906Z,75.16
2022-11-13T11:26:42.539Z,74.72
2022-11-13T11:29:27.332Z,74.75
2022-11-13T11:32:00.837Z,74.15
2022-11-13T11:34:48.955Z,74.08
2022-11-13T11:37:20.719Z,73.92
2022-11-13T11:40:15.916Z,73.78
2022-11-13T11:43:18.805Z,73.69
2022-11-13T11:45:48.067Z,73.48
2022-11-13T11:48:31.242Z,73.42
2022-11-13T11:51:32.603Z,73.48
2022-11-13T11:54:44.247Z,73.80
2022-11-13T11:57:36.432Z,73.72
2022-11-13T12:00:17.751Z,73.57
2022-11-13T12:03:13.616Z,73.69
2022-11-13T12:06:11.695Z,73.82
2022-11-13T12:09:00.324Z,73.85
2022-11-13T12:11:42.537Z,73.70
2022-11-13T12:14:37.531Z,73.53
2022-11-13T12:17:48.089Z,73.60
2022-11-13T12:20:43.275Z,73.60
2022-11-13T12:23:41.999Z,73.74
2022-11-13T12:26:20.002Z,73.86
2022-11-13T12:29:14.731Z,73.93
2022-11-13T12:32:18.079Z,73.87
2022-11-13T12:34:54.019Z,73.73
2022-11-13T12:37:58.843Z,73.75
2022-11-13T12:41:21.924Z,73.56
2022-11-13T12:44:20.456Z,73.75
2022-11-13T12:46:49.731Z,73.63
2022-11-13T12:49:23.814Z,73.84
2022-11-13T12:51:59.214Z,73.92
2022-11-13T12:54:36.545Z,73.95
2022-11-13T12:57:14.453Z,74.06
2022-11-13T12:59:46.937Z,74.13
2022-11-13T13:02:14.885Z,74.11
2022-11-13T13:05:18.122Z,74.14
2022-11-13T13:08:28.917Z,74.20
2022-11-13T13:11:15.272Z,74.13
2022-11-13T13:13:59.269Z,74.03
2022-11-13T13:16:29.668Z,74.40
2022-11-13T13:19:31.963Z,74.34
2022-11-13T13:21:59.884Z,73.97
2022-11-13T13:24:38.252Z,73.39
2022-11-13T13:27:27.811Z,73.53
2022-11-13T13:29:55.728Z,73.62
2022-11-13T13:32:36.811Z,73.87
2022-11-13T13:35:17.685Z,73.94
2022-11-13T13:38:03.013Z,73.86
2022-11-13T13:41:04.561Z,73.89
2022-11-13T13:43:58.217Z,73.98
2022-11-13T13:46:30.109Z,74.02
2022-11-13T13:49:09.607Z,73.89
2022-11-13T13:51:42.842Z,73.96
2022-11-13T13:54:19.146Z,73.77
2022-11-13T13:56:47.202Z,73.42
2022-11-13T13:59:37.340Z,73.45
2022-11-13T14:02:20.271Z,73.63
2022-11-13T14:04:50.016Z,73.65
2022-11-13T14:07:29.911Z,73.78
2022-11-13T14:10:18.983Z,73.82
2022-11-13T14:12:47.376Z,73.93
2022-11-13T14:15:34.724Z,74.06
2022-11-13T14:18:15.023Z,74.09
2022-11-13T14:21:17.256Z,74.26
2022-11-13T14:23:51.262Z,74.31
2022-11-13T14:26:20.382Z,74.35
2022-11-13T14:28:58.306Z,74.44
2022-11-13T14:31:33.325Z,74.50
2022-11-13T14:34:08.670Z,74.34
2022-11-13T14:36:37.347Z,74.06
2022-11-13T14:39:05.274Z,74.12
2022-11-13T14:41:40.402Z,74.13
2022-11-13T14:44:11.827Z,74.11
2022-11-13T14:46:47.719Z,74.16
2022-11-13T14:49:27.722Z,74.23
2022-11-13T14:51:57.745Z,74.21
2022-11-13T14:55:08.018Z,74.34
2022-11-13T14:57:25.848Z,74.47
2022-11-13T14:59:53.713Z,74.61
2022-11-13T15:02:22.003Z,74.71
2022-11-13T15:04:49.833Z,74.69
2022-11-13T15:07:32.888Z,74.70
2022-11-13T15:10:01.236Z,74.82
2022-11-13T15:12:29.254Z,74.94
2022-11-13T15:14:57.123Z,74.96
2022-11-13T15:17:25.036Z,74.89
2022-11-13T15:19:54.463Z,74.58
2022-11-13T15:22:27.646Z,74.66
2022-11-13T15:24:56.445Z,74.67
2022-11-13T15:27:25.732Z,74.57
2022-11-13T15:29:53.608Z,74.67
2022-11-13T15:32:21.553Z,74.97
2022-11-13T15:34:49.540Z,75.66
2022-11-13T15:37:17.536Z,75.98
2022-11-13T15:39:45.387Z,76.05
2022-11-13T15:42:16.866Z,76.20
2022-11-13T15:44:46.853Z,76.21
2022-11-13T15:47:36.460Z,76.16
2022-11-13T15:50:13.954Z,76.14
2022-11-13T15:52:50.721Z,76.12
2022-11-13T15:55:33.941Z,76.15
2022-11-13T15:58:02.570Z,76.18
2022-11-13T16:00:33.777Z,75.91
2022-11-13T16:03:04.451Z,75.71
2022-11-13T16:05:32.413Z,75.84
2022-11-13T16:08:00.563Z,75.93
2022-11-13T16:10:28.615Z,75.90
2022-11-13T16:12:56.805Z,75.81
2022-11-13T16:15:24.758Z,75.76
2022-11-13T16:17:56.280Z,75.64
2022-11-13T16:20:24.986Z,75.60
2022-11-13T16:22:53.821Z,75.60
2022-11-13T16:25:22.901Z,75.72
2022-11-13T16:27:51.749Z,75.78
2022-11-13T16:30:23.642Z,75.76
2022-11-13T16:32:52.114Z,75.82
2022-11-13T16:35:21.138Z,75.90
2022-11-13T16:37:49.470Z,76.09
2022-11-13T16:40:25.661Z,76.10
2022-11-13T16:42:54.744Z,76.09
2022-11-13T16:45:23.548Z,75.97
2022-11-13T16:47:51.911Z,75.92
2022-11-13T16:50:27.324Z,75.96
2022-11-13T16:52:56.844Z,75.99
2022-11-13T16:55:25.966Z,76.00
2022-11-13T16:57:54.881Z,76.07
2022-11-13T17:00:25.774Z,76.15
2022-11-13T17:02:54.307Z,76.24
2022-11-13T17:05:24.727Z,76.38
2022-11-13T17:07:58.496Z,76.50
2022-11-13T17:10:32.316Z,76.65
2022-11-13T17:13:01.400Z,76.78
2022-11-13T17:15:29.589Z,76.88
2022-11-13T17:17:59.385Z,76.63
2022-11-13T17:20:30.000Z,76.73
2022-11-13T17:22:59.271Z,76.98
2022-11-13T17:25:28.330Z,77.12
2022-11-13T17:27:56.399Z,77.19
2022-11-13T17:30:25.192Z,77.20
2022-11-13T17:32:59.331Z,77.28
2022-11-13T17:35:28.697Z,77.42
2022-11-13T17:37:57.129Z,77.52
2022-11-13T17:40:25.351Z,77.58
2022-11-13T17:42:53.613Z,77.67
2022-11-13T17:45:22.235Z,77.73
2022-11-13T17:47:51.249Z,77.67
2022-11-13T17:50:19.663Z,77.64
2022-11-13T17:52:48.691Z,77.47
2022-11-13T17:55:17.546Z,77.46
2022-11-13T17:57:45.934Z,77.49
2022-11-13T18:00:18.206Z,77.53
2022-11-13T18:02:47.095Z,77.53
2022-11-13T18:05:15.603Z,77.47
2022-11-13T18:07:44.335Z,77.49
2022-11-13T18:10:12.556Z,77.34
2022-11-13T18:12:40.691Z,77.10
2022-11-13T18:15:12.057Z,76.82
2022-11-13T18:17:43.574Z,76.67
2022-11-13T18:20:13.112Z,76.86
2022-11-13T18:22:41.132Z,76.92
2022-11-13T18:25:10.229Z,76.71
2022-11-13T18:27:39.106Z,76.73
2022-11-13T18:30:08.624Z,76.90
2022-11-13T18:32:37.134Z,76.94
2022-11-13T18:35:09.474Z,77.03
2022-11-13T18:37:37.464Z,76.96
2022-11-13T18:40:06.852Z,77.03
2022-11-13T18:42:37.043Z,77.08
2022-11-13T18:45:06.490Z,77.07
2022-11-13T18:47:34.656Z,76.87
2022-11-13T18:50:03.879Z,76.81
2022-11-13T18:52:32.915Z,76.82
2022-11-13T18:55:01.109Z,76.79
2022-11-13T18:57:29.081Z,76.84
2022-11-13T18:59:56.909Z,76.75
2022-11-13T19:02:25.082Z,76.73
2022-11-13T19:04:53.034Z,76.62
2022-11-13T19:07:21.144Z,76.60
2022-11-13T19:09:50.523Z,76.43
2022-11-13T19:12:18.493Z,76.53
2022-11-13T19:14:46.532Z,76.68
2022-11-13T19:17:14.785Z,76.80
2022-11-13T19:19:42.794Z,76.81
2022-11-13T19:22:10.737Z,76.80
2022-11-13T19:24:38.852Z,76.90
2022-11-13T19:27:07.350Z,76.93
2022-11-13T19:29:35.393Z,76.96
2022-11-13T19:32:03.340Z,77.04
2022-11-13T19:34:31.321Z,77.14
2022-11-13T19:36:59.558Z,77.14
2022-11-13T19:39:30.590Z,77.18
2022-11-13T19:41:58.808Z,77.01
2022-11-13T19:44:27.478Z,77.14
2022-11-13T19:46:55.492Z,77.22
2022-11-13T19:49:23.528Z,77.29
2022-11-13T19:51:51.482Z,77.47
2022-11-13T19:54:19.898Z,77.56
2022-11-13T19:56:47.894Z,77.61
2022-11-13T19:59:15.942Z,77.63
2022-11-13T20:01:46.093Z,77.64
2022-11-13T20:04:16.255Z,77.62
2022-11-13T20:06:44.801Z,77.57
2022-11-13T20:09:13.385Z,77.76
2022-11-13T20:11:41.941Z,77.90
2022-11-13T20:14:12.014Z,77.95
2022-11-13T20:16:40.550Z,77.90
2022-11-13T20:19:08.675Z,77.87
2022-11-13T20:21:37.374Z,77.89
2022-11-13T20:24:06.038Z,77.90
2022-11-13T20:26:34.099Z,77.92
2022-11-13T20:29:02.316Z,77.94
2022-11-13T20:31:32.654Z,77.96
2022-11-13T20:34:00.511Z,78.00
2022-11-13T20:36:28.686Z,78.02
2022-11-13T20:38:57.592Z,78.07
2022-11-13T20:41:25.672Z,78.14
2022-11-13T20:43:56.444Z,78.18
2022-11-13T20:46:24.488Z,78.21
2022-11-13T20:48:52.448Z,78.28
2022-11-13T20:51:23.960Z,78.36
2022-11-13T20:53:52.978Z,78.45
2022-11-13T20:56:23.553Z,78.51
2022-11-13T20:58:51.809Z,78.61
2022-11-13T21:01:23.505Z,78.67
2022-11-13T21:03:52.709Z,78.72
2022-11-13T21:06:23.370Z,78.80
2022-11-13T21:08:53.728Z,78.85
2022-11-13T21:11:25.551Z,78.92
2022-11-13T21:13:55.610Z,78.93
2022-11-13T21:16:27.814Z,79.13
2022-11-13T21:19:00.119Z,79.29
2022-11-13T21:21:29.208Z,79.44
2022-11-13T21:23:58.887Z,79.38
2022-11-13T21:26:29.680Z,79.56
2022-11-13T21:29:00.235Z,79.58
2022-11-13T21:31:28.023Z,79.72
2022-11-13T21:33:55.960Z,79.87
2022-11-13T21:36:26.961Z,80.12
2022-11-13T21:38:56.457Z,80.13
2022-11-13T21:41:25.431Z,80.20
2022-11-13T21:44:04.728Z,80.38
2022-11-13T21:46:36.821Z,80.46
2022-11-13T21:49:11.331Z,80.55
2022-11-13T21:51:42.325Z,80.69
2022-11-13T21:54:10.698Z,80.79
2022-11-13T21:56:39.155Z,80.84
2022-11-13T21:59:07.136Z,80.89
2022-11-13T22:01:38.544Z,81.00
2022-11-13T22:04:06.805Z,81.13
2022-11-13T22:06:40.129Z,81.03
2022-11-13T22:09:22.616Z,81.13
2022-11-13T22:11:50.613Z,81.29
2022-11-13T22:14:18.592Z,81.38
2022-11-13T22:16:47.615Z,81.51
2022-11-13T22:19:22.507Z,81.61
2022-11-13T22:21:54.098Z,81.61
2022-11-13T22:24:22.109Z,81.69
2022-11-13T22:26:50.180Z,81.77
2022-11-13T22:29:18.295Z,81.86
2022-11-13T22:31:46.787Z,81.99
2022-11-13T22:34:14.940Z,82.19
2022-11-13T22:36:42.811Z,82.35
2022-11-13T22:39:11.298Z,82.55
2022-11-13T22:41:39.276Z,82.65
2022-11-13T22:44:12.303Z,82.77
2022-11-13T22:46:40.296Z,82.78
2022-11-13T22:49:08.317Z,82.86
2022-11-13T22:51:41.135Z,82.85
2022-11-13T22:54:10.674Z,82.84
2022-11-13T22:56:40.684Z,82.85
2022-11-13T22:59:12.545Z,82.86
2022-11-13T23:01:43.070Z,82.93
2022-11-13T23:04:13.881Z,82.97
2022-11-13T23:06:43.056Z,83.03
2022-11-13T23:09:11.307Z,83.03
2022-11-13T23:11:41.022Z,83.04
2022-11-13T23:14:13.042Z,83.03
2022-11-13T23:16:40.966Z,83.03
2022-11-13T23:19:09.448Z,83.06
2022-11-13T23:21:37.527Z,83.04
2022-11-13T23:24:06.132Z,83.04
2022-11-13T23:26:34.019Z,83.06
2022-11-13T23:29:02.056Z,83.06
2022-11-13T23:31:29.946Z,83.08
2022-11-13T23:33:57.881Z,83.08
2022-11-13T23:36:27.504Z,83.08
2022-11-13T23:38:56.042Z,83.09
2022-11-13T23:41:24.041Z,83.09
2022-11-13T23:44:09.532Z,83.08
2022-11-13T23:46:37.779Z,83.05
2022-11-13T23:49:05.954Z,83.06
2022-11-13T23:51:34.040Z,83.06
2022-11-13T23:54:02.051Z,83.03
2022-11-13T23:56:30.239Z,83.08
2022-11-13T23:58:58.099Z,83.13
